createdAt,value
2019-01-19T00:02:10.248Z,12.20
2019-01-19T00:05:44.718Z,13.00
2019-01-19T00:08:58.602Z,13.87
2019-01-19T00:12:16.052Z,9.73
2019-01-19T00:15:03.135Z,15.07
2019-01-19T00:18:05.578Z,9.10
2019-01-19T00:21:21.776Z,10.93
2019-01-19T00:24:43.887Z,23.03
2019-01-19T00:27:32.934Z,10.03
2019-01-19T00:31:06.740Z,9.37
2019-01-19T00:34:05.609Z,12.30
2019-01-19T00:37:15.245Z,13.23
2019-01-19T00:40:05.261Z,12.30
2019-01-19T00:42:53.223Z,8.90
2019-01-19T00:46:00.898Z,9.40
2019-01-19T00:49:02.317Z,7.37
2019-01-19T00:51:58.574Z,6.70
2019-01-19T00:55:01.288Z,10.43
2019-01-19T00:58:23.354Z,7.67
2019-01-19T01:01:37.324Z,12.70
2019-01-19T01:04:55.290Z,8.43
2019-01-19T01:08:09.958Z,11.00
2019-01-19T01:10:51.734Z,8.83
2019-01-19T01:14:13.247Z,9.87
2019-01-19T01:16:57.966Z,13.23
2019-01-19T01:20:32.248Z,10.27
2019-01-19T01:23:38.408Z,9.83
2019-01-19T01:26:46.971Z,10.50
2019-01-19T01:29:55.083Z,11.63
2019-01-19T01:33:02.807Z,8.17
2019-01-19T01:36:21.287Z,8.63
2019-01-19T01:39:24.789Z,11.40
2019-01-19T01:42:29.773Z,9.70
2019-01-19T01:45:51.413Z,6.00
2019-01-19T01:48:44.291Z,9.37
2019-01-19T01:51:26.066Z,6.33
2019-01-19T01:54:39.758Z,8.20
2019-01-19T01:57:33.875Z,14.07
2019-01-19T02:00:25.022Z,6.97
2019-01-19T02:03:30.497Z,8.30
2019-01-19T02:06:49.338Z,6.50
2019-01-19T02:09:52.185Z,8.47
2019-01-19T02:13:15.918Z,8.33
2019-01-19T02:16:59.957Z,9.77
2019-01-19T02:20:02.540Z,8.33
2019-01-19T02:23:12.925Z,8.93
2019-01-19T02:25:59.197Z,11.20
2019-01-19T02:29:06.026Z,6.93
2019-01-19T02:31:53.631Z,7.73
2019-01-19T02:34:53.445Z,8.17
2019-01-19T02:38:04.420Z,8.63
2019-01-19T02:41:15.907Z,8.60
2019-01-19T02:44:28.535Z,8.37
2019-01-19T02:47:34.102Z,9.23
2019-01-19T02:50:44.891Z,9.90
2019-01-19T02:53:50.656Z,11.90
2019-01-19T02:57:06.809Z,6.30
2019-01-19T03:00:21.149Z,11.77
2019-01-19T03:03:11.328Z,20.80
2019-01-19T03:06:21.890Z,14.03
2019-01-19T03:09:32.798Z,18.07
2019-01-19T03:12:58.133Z,17.87
2019-01-19T03:15:56.007Z,10.93
2019-01-19T03:19:25.255Z,21.67
2019-01-19T03:22:41.211Z,16.13
2019-01-19T03:25:45.227Z,17.23
2019-01-19T03:28:41.112Z,22.07
2019-01-19T03:32:06.292Z,11.53
2019-01-19T03:35:05.115Z,14.93
2019-01-19T03:38:10.058Z,16.53
2019-01-19T03:41:28.746Z,16.27
2019-01-19T03:44:27.076Z,13.83
2019-01-19T03:47:22.610Z,19.80
2019-01-19T03:50:30.160Z,18.67
2019-01-19T03:53:46.827Z,18.57
2019-01-19T03:56:47.474Z,13.47
2019-01-19T04:00:07.676Z,26.37
2019-01-19T04:03:27.281Z,16.20
2019-01-19T04:06:39.663Z,9.93
2019-01-19T04:09:43.694Z,19.90
2019-01-19T04:12:36.920Z,14.10
2019-01-19T04:15:45.445Z,13.37
2019-01-19T04:19:02.064Z,20.90
2019-01-19T04:22:18.346Z,12.57
2019-01-19T04:25:07.440Z,17.27
2019-01-19T04:27:40.862Z,19.30
2019-01-19T04:30:15.690Z,14.50
2019-01-19T04:32:57.547Z,14.47
2019-01-19T04:35:31.506Z,10.67
2019-01-19T04:38:11.730Z,11.60
2019-01-19T04:40:45.485Z,14.33
2019-01-19T04:43:18.904Z,15.00
2019-01-19T04:45:52.308Z,9.87
2019-01-19T04:48:26.996Z,10.60
2019-01-19T04:51:01.576Z,12.43
2019-01-19T04:53:41.930Z,10.60
2019-01-19T04:56:15.848Z,11.87
2019-01-19T04:58:56.315Z,13.20
2019-01-19T05:01:29.610Z,18.37
2019-01-19T05:04:03.218Z,11.10
2019-01-19T05:06:36.635Z,9.73
2019-01-19T05:09:12.038Z,9.37
2019-01-19T05:11:45.391Z,13.00
2019-01-19T05:14:18.978Z,11.80
2019-01-19T05:16:53.174Z,17.93
2019-01-19T05:19:34.628Z,12.33
2019-01-19T05:22:08.335Z,9.37
2019-01-19T05:24:48.809Z,9.10
2019-01-19T05:27:22.513Z,7.33
2019-01-19T05:30:02.903Z,11.50
2019-01-19T05:32:36.802Z,10.73
2019-01-19T05:35:10.933Z,9.37
2019-01-19T05:37:44.909Z,11.10
2019-01-19T05:40:18.919Z,11.40
2019-01-19T05:42:52.291Z,12.37
2019-01-19T05:45:25.712Z,7.30
2019-01-19T05:47:59.023Z,8.00
2019-01-19T05:50:32.453Z,10.40
2019-01-19T05:53:05.771Z,11.63
2019-01-19T05:55:46.937Z,13.23
2019-01-19T05:58:20.253Z,13.90
2019-01-19T06:00:54.250Z,12.57
2019-01-19T06:03:28.243Z,15.27
2019-01-19T06:06:09.133Z,9.37
2019-01-19T06:08:43.216Z,10.80
2019-01-19T06:11:24.001Z,12.43
2019-01-19T06:13:58.039Z,12.97
2019-01-19T06:16:32.913Z,10.57
2019-01-19T06:19:07.718Z,12.43
2019-01-19T06:21:49.789Z,8.77
2019-01-19T06:24:23.604Z,7.90
2019-01-19T06:26:57.323Z,13.30
2019-01-19T06:29:30.999Z,10.27
2019-01-19T06:32:04.691Z,10.03
2019-01-19T06:34:38.013Z,8.93
2019-01-19T06:37:18.487Z,9.57
2019-01-19T06:39:51.874Z,7.20
2019-01-19T06:42:25.245Z,11.10
2019-01-19T06:44:59.130Z,13.90
2019-01-19T06:47:32.628Z,14.93
2019-01-19T06:50:05.934Z,11.70
2019-01-19T06:52:39.855Z,17.20
2019-01-19T06:55:14.955Z,10.73
2019-01-19T06:57:48.400Z,7.47
2019-01-19T07:00:21.735Z,8.63
2019-01-19T07:02:55.463Z,25.10
2019-01-19T07:05:29.133Z,16.87
2019-01-19T07:08:09.937Z,11.37
2019-01-19T07:10:43.257Z,11.50
2019-01-19T07:13:24.070Z,7.30
2019-01-19T07:15:57.679Z,9.47
2019-01-19T07:18:31.608Z,9.47
2019-01-19T07:21:05.611Z,10.63
2019-01-19T07:23:39.654Z,10.80
2019-01-19T07:26:13.512Z,9.73
2019-01-19T07:28:47.365Z,12.97
2019-01-19T07:31:21.394Z,8.83
2019-01-19T07:33:55.298Z,9.33
2019-01-19T07:36:29.548Z,10.70
2019-01-19T07:39:10.039Z,12.53
2019-01-19T07:41:43.971Z,9.33
2019-01-19T07:44:17.577Z,9.77
2019-01-19T07:46:55.963Z,12.03
2019-01-19T07:49:27.337Z,13.03
2019-01-19T07:52:01.808Z,12.73
2019-01-19T07:54:35.743Z,17.37
2019-01-19T07:57:09.426Z,8.20
2019-01-19T07:59:42.831Z,8.70
2019-01-19T08:02:16.245Z,9.67
2019-01-19T08:04:49.615Z,10.03
2019-01-19T08:07:23.455Z,10.80
2019-01-19T08:09:57.781Z,9.67
2019-01-19T08:12:31.753Z,10.40
2019-01-19T08:15:05.215Z,8.13
2019-01-19T08:17:39.187Z,21.60
2019-01-19T08:20:13.560Z,10.03
2019-01-19T08:22:46.990Z,25.87
2019-01-19T08:25:20.360Z,18.13
2019-01-19T08:27:53.679Z,12.17
2019-01-19T08:30:35.904Z,13.57
2019-01-19T08:33:09.691Z,9.20
2019-01-19T08:35:52.130Z,15.73
2019-01-19T08:38:25.890Z,8.33
2019-01-19T08:40:59.786Z,22.90
2019-01-19T08:43:38.816Z,22.27
2019-01-19T08:46:19.341Z,10.43
2019-01-19T08:48:52.990Z,30.87
2019-01-19T08:51:26.309Z,10.27
2019-01-19T08:53:59.579Z,12.37
2019-01-19T08:56:32.943Z,26.37
2019-01-19T08:59:06.637Z,17.97
2019-01-19T09:01:40.894Z,20.80
2019-01-19T09:04:14.372Z,15.53
2019-01-19T09:06:48.723Z,13.10
2019-01-19T09:09:22.677Z,19.43
2019-01-19T09:12:03.511Z,15.00
2019-01-19T09:14:37.342Z,30.33
2019-01-19T09:17:10.866Z,34.37
2019-01-19T09:19:44.166Z,30.77
2019-01-19T09:22:17.919Z,27.93
2019-01-19T09:24:51.638Z,23.27
2019-01-19T09:27:25.034Z,42.33
2019-01-19T09:29:58.381Z,29.93
2019-01-19T09:32:39.126Z,32.33
2019-01-19T09:35:12.908Z,35.17
2019-01-19T09:37:47.008Z,27.03
2019-01-19T09:40:21.637Z,28.70
2019-01-19T09:43:01.669Z,41.47
2019-01-19T09:45:35.106Z,28.40
2019-01-19T09:48:15.454Z,19.40
2019-01-19T09:50:48.741Z,20.73
2019-01-19T09:53:22.138Z,18.57
2019-01-19T09:55:55.549Z,26.10
2019-01-19T09:58:35.651Z,23.40
2019-01-19T10:01:09.713Z,20.97
2019-01-19T10:03:43.326Z,30.90
2019-01-19T10:06:17.468Z,38.07
2019-01-19T10:08:51.327Z,39.27
2019-01-19T10:11:25.140Z,36.33
2019-01-19T10:14:13.066Z,34.87
2019-01-19T10:16:47.039Z,40.40
2019-01-19T10:19:20.985Z,39.03
2019-01-19T10:21:55.049Z,58.60
2019-01-19T10:24:28.649Z,35.10
2019-01-19T10:27:02.276Z,46.10
2019-01-19T10:29:36.102Z,46.67
2019-01-19T10:32:09.435Z,41.13
2019-01-19T10:34:42.929Z,28.40
2019-01-19T10:37:16.265Z,31.23
2019-01-19T10:39:49.778Z,26.83
2019-01-19T10:42:23.318Z,26.27
2019-01-19T10:44:57.205Z,28.60
2019-01-19T10:47:30.967Z,24.77
2019-01-19T10:50:05.055Z,47.30
2019-01-19T10:52:38.867Z,27.77
2019-01-19T10:55:20.245Z,33.97
2019-01-19T10:57:54.050Z,31.67
2019-01-19T11:00:37.202Z,34.17
2019-01-19T11:03:10.981Z,31.07
2019-01-19T11:05:45.011Z,29.50
2019-01-19T11:08:19.108Z,33.83
2019-01-19T11:10:59.801Z,22.10
2019-01-19T11:13:33.699Z,24.77
2019-01-19T11:16:07.680Z,17.53
2019-01-19T11:18:42.061Z,21.13
2019-01-19T11:21:16.189Z,27.60
2019-01-19T11:23:49.971Z,17.00
2019-01-19T11:26:30.607Z,27.13
2019-01-19T11:29:04.542Z,50.30
2019-01-19T11:31:38.527Z,32.03
2019-01-19T11:34:12.145Z,22.80
2019-01-19T11:36:46.418Z,22.20
2019-01-19T11:39:20.287Z,18.20
2019-01-19T11:41:53.845Z,25.20
2019-01-19T11:44:27.906Z,20.30
2019-01-19T11:47:08.461Z,16.47
2019-01-19T11:49:42.342Z,22.60
2019-01-19T11:52:23.310Z,16.87
2019-01-19T11:54:56.852Z,27.40
2019-01-19T11:57:37.564Z,33.07
2019-01-19T12:00:15.908Z,31.57
2019-01-19T12:02:50.212Z,35.43
2019-01-19T12:05:24.120Z,37.07
2019-01-19T12:08:03.889Z,27.93
2019-01-19T12:10:37.401Z,38.80
2019-01-19T12:13:11.913Z,36.73
2019-01-19T12:15:45.285Z,45.60
2019-01-19T12:18:18.821Z,31.70
2019-01-19T12:20:54.028Z,34.70
2019-01-19T12:23:27.525Z,30.50
2019-01-19T12:26:00.857Z,33.90
2019-01-19T12:28:35.071Z,27.07
2019-01-19T12:31:09.029Z,34.57
2019-01-19T12:33:43.179Z,36.20
2019-01-19T12:36:16.539Z,89.73
2019-01-19T12:38:50.038Z,69.17
2019-01-19T12:41:23.388Z,67.30
2019-01-19T12:43:56.918Z,54.87
2019-01-19T12:46:30.274Z,48.03
2019-01-19T12:49:03.741Z,37.00
2019-01-19T12:51:37.041Z,23.03
2019-01-19T12:54:10.551Z,23.53
2019-01-19T12:56:43.961Z,24.37
2019-01-19T12:59:24.234Z,38.73
2019-01-19T13:01:57.933Z,29.23
2019-01-19T13:04:38.300Z,33.80
2019-01-19T13:07:15.037Z,34.07
2019-01-19T13:10:04.900Z,40.03
2019-01-19T13:12:41.826Z,48.87
2019-01-19T13:15:52.254Z,47.13
2019-01-19T13:19:16.587Z,41.47
2019-01-19T13:22:25.062Z,34.27
2019-01-19T13:25:08.489Z,31.07
2019-01-19T13:28:14.512Z,30.23
2019-01-19T13:31:09.116Z,35.27
2019-01-19T13:34:38.210Z,29.73
2019-01-19T13:37:42.699Z,35.40
2019-01-19T13:40:35.582Z,33.93
2019-01-19T13:43:55.319Z,27.20
2019-01-19T13:47:14.362Z,34.27
2019-01-19T13:50:43.272Z,31.53
2019-01-19T13:54:00.273Z,21.17
2019-01-19T13:57:26.694Z,25.83
2019-01-19T14:00:18.758Z,20.60
2019-01-19T14:03:17.660Z,18.93
2019-01-19T14:06:39.617Z,17.00
2019-01-19T14:09:46.750Z,17.77
2019-01-19T14:13:15.247Z,30.60
2019-01-19T14:16:35.974Z,20.10
2019-01-19T14:19:43.454Z,17.50
2019-01-19T14:23:29.600Z,23.70
2019-01-19T14:26:39.194Z,17.00
2019-01-19T14:29:44.021Z,17.87
2019-01-19T14:32:56.273Z,17.07
2019-01-19T14:35:52.830Z,15.17
2019-01-19T14:39:09.373Z,12.87
2019-01-19T14:41:59.734Z,22.40
2019-01-19T14:45:15.224Z,18.57
2019-01-19T14:48:36.117Z,22.27
2019-01-19T14:51:52.783Z,26.57
2019-01-19T14:55:02.549Z,22.70
2019-01-19T14:57:46.731Z,17.17
2019-01-19T15:00:57.654Z,20.27
2019-01-19T15:04:02.245Z,14.67
2019-01-19T15:07:03.861Z,16.17
2019-01-19T15:10:00.669Z,18.93
2019-01-19T15:13:14.031Z,11.03
2019-01-19T15:16:38.658Z,16.40
2019-01-19T15:19:45.793Z,10.90
2019-01-19T15:22:48.280Z,13.57
2019-01-19T15:25:54.513Z,14.50
2019-01-19T15:29:03.868Z,10.07
2019-01-19T15:32:23.499Z,17.97
2019-01-19T15:35:49.724Z,14.47
2019-01-19T15:38:59.994Z,13.80
2019-01-19T15:42:34.590Z,13.33
2019-01-19T15:45:44.212Z,22.87
2019-01-19T15:48:49.637Z,18.00
2019-01-19T15:52:05.181Z,10.87
2019-01-19T15:55:08.216Z,15.17
2019-01-19T15:58:26.002Z,14.97
2019-01-19T16:01:43.336Z,18.83
2019-01-19T16:04:55.650Z,8.90
2019-01-19T16:08:04.840Z,10.03
2019-01-19T16:10:57.543Z,7.07
2019-01-19T16:14:26.436Z,15.77
2019-01-19T16:17:24.905Z,7.77
2019-01-19T16:20:49.537Z,10.00
2019-01-19T16:23:44.724Z,8.77
2019-01-19T16:26:48.279Z,12.97
2019-01-19T16:29:57.436Z,11.00
2019-01-19T16:33:26.233Z,10.33
2019-01-19T16:36:41.285Z,14.10
2019-01-19T16:39:45.468Z,25.20
2019-01-19T16:42:50.660Z,12.93
2019-01-19T16:46:08.515Z,8.37
2019-01-19T16:49:05.503Z,13.77
2019-01-19T16:52:28.939Z,13.33
2019-01-19T16:55:37.058Z,10.97
2019-01-19T16:58:47.929Z,17.90
2019-01-19T17:02:30.879Z,12.30
2019-01-19T17:05:27.153Z,12.23
2019-01-19T17:08:36.759Z,16.30
2019-01-19T17:11:35.532Z,11.93
2019-01-19T17:14:58.458Z,11.37
2019-01-19T17:18:06.997Z,88.00
2019-01-19T17:21:21.899Z,28.20
2019-01-19T17:24:28.911Z,16.00
2019-01-19T17:27:45.815Z,16.57
2019-01-19T17:31:13.108Z,12.73
2019-01-19T17:34:12.798Z,12.77
2019-01-19T17:37:07.387Z,14.57
2019-01-19T17:40:16.298Z,10.23
2019-01-19T17:43:19.905Z,12.03
2019-01-19T17:46:54.916Z,18.23
2019-01-19T17:50:17.941Z,14.77
2019-01-19T17:53:31.786Z,14.67
2019-01-19T17:56:58.376Z,21.33
2019-01-19T18:00:32.543Z,20.93
2019-01-19T18:03:57.505Z,13.90
2019-01-19T18:07:09.602Z,23.27
2019-01-19T18:10:15.605Z,16.37
2019-01-19T18:13:11.270Z,24.70
2019-01-19T18:16:28.967Z,15.70
2019-01-19T18:19:17.029Z,18.03
2019-01-19T18:22:39.010Z,15.40
2019-01-19T18:25:21.440Z,14.33
2019-01-19T18:28:36.866Z,10.30
2019-01-19T18:31:44.330Z,15.70
2019-01-19T18:35:03.079Z,13.13
2019-01-19T18:38:00.982Z,13.23
2019-01-19T18:41:10.221Z,20.83
2019-01-19T18:44:14.021Z,22.00
2019-01-19T18:47:27.701Z,20.90
2019-01-19T18:50:48.184Z,23.13
2019-01-19T18:54:09.286Z,11.60
2019-01-19T18:57:33.391Z,11.63
2019-01-19T19:00:58.820Z,22.73
2019-01-19T19:03:57.231Z,15.03
2019-01-19T19:07:12.215Z,14.43
2019-01-19T19:10:26.032Z,26.27
2019-01-19T19:13:29.542Z,18.10
2019-01-19T19:16:40.832Z,12.00
2019-01-19T19:19:38.306Z,17.53
2019-01-19T19:22:42.092Z,17.47
2019-01-19T19:25:51.136Z,13.30
2019-01-19T19:29:02.852Z,11.33
2019-01-19T19:32:17.185Z,19.40
2019-01-19T19:35:12.133Z,16.03
2019-01-19T19:38:07.097Z,12.07
2019-01-19T19:41:25.153Z,11.30
2019-01-19T19:44:30.730Z,14.10
2019-01-19T19:47:32.169Z,15.90
2019-01-19T19:50:46.769Z,16.97
2019-01-19T19:53:19.402Z,13.47
2019-01-19T19:55:51.751Z,22.23
2019-01-19T19:58:24.661Z,17.83
2019-01-19T20:00:58.691Z,17.13
2019-01-19T20:03:32.526Z,16.17
2019-01-19T20:06:05.267Z,22.47
2019-01-19T20:08:42.138Z,19.27
2019-01-19T20:11:23.072Z,11.93
2019-01-19T20:13:55.436Z,16.00
2019-01-19T20:16:39.483Z,22.03
2019-01-19T20:19:13.095Z,12.90
2019-01-19T20:21:46.263Z,21.73
2019-01-19T20:24:30.752Z,12.50
2019-01-19T20:27:09.824Z,19.03
2019-01-19T20:29:42.704Z,23.67
2019-01-19T20:32:22.061Z,26.17
2019-01-19T20:34:57.023Z,24.10
2019-01-19T20:37:39.110Z,13.57
2019-01-19T20:40:12.748Z,18.53
2019-01-19T20:42:48.500Z,20.87
2019-01-19T20:45:24.294Z,11.77
2019-01-19T20:47:57.174Z,13.83
2019-01-19T20:50:31.076Z,12.37
2019-01-19T20:53:13.438Z,26.73
2019-01-19T20:55:46.105Z,13.77
2019-01-19T20:58:18.923Z,11.60
2019-01-19T21:00:52.418Z,17.03
2019-01-19T21:03:27.323Z,12.93
2019-01-19T21:06:02.580Z,15.50
2019-01-19T21:08:53.529Z,21.43
2019-01-19T21:11:27.881Z,21.43
2019-01-19T21:14:00.617Z,12.00
2019-01-19T21:16:34.170Z,12.23
2019-01-19T21:19:17.003Z,16.27
2019-01-19T21:21:49.917Z,21.40
2019-01-19T21:24:24.417Z,22.00
2019-01-19T21:27:03.532Z,18.57
2019-01-19T21:29:36.267Z,14.37
2019-01-19T21:32:11.110Z,21.47
2019-01-19T21:34:45.185Z,18.30
2019-01-19T21:37:18.590Z,18.93
2019-01-19T21:39:53.106Z,19.33
2019-01-19T21:42:25.806Z,19.00
2019-01-19T21:44:58.646Z,16.13
2019-01-19T21:47:31.315Z,19.00
2019-01-19T21:50:04.237Z,18.00
2019-01-19T21:52:36.870Z,20.27
2019-01-19T21:55:10.258Z,16.47
2019-01-19T21:57:43.745Z,21.63
2019-01-19T22:00:18.446Z,26.70
2019-01-19T22:02:51.111Z,28.53
2019-01-19T22:05:32.193Z,26.20
2019-01-19T22:08:04.863Z,27.37
2019-01-19T22:10:46.460Z,21.20
2019-01-19T22:13:19.017Z,65.57
2019-01-19T22:15:51.835Z,17.37
2019-01-19T22:18:28.720Z,20.23
2019-01-19T22:21:01.556Z,36.30
2019-01-19T22:23:34.254Z,21.20
2019-01-19T22:26:08.407Z,25.67
2019-01-19T22:28:47.692Z,26.70
2019-01-19T22:31:58.059Z,19.63
2019-01-19T22:34:30.731Z,21.33
2019-01-19T22:37:10.965Z,23.97
2019-01-19T22:39:43.704Z,27.77
2019-01-19T22:42:24.597Z,23.50
2019-01-19T22:44:58.370Z,22.53
2019-01-19T22:47:31.112Z,18.27
2019-01-19T22:50:09.009Z,30.77
2019-01-19T22:52:41.695Z,25.30
2019-01-19T22:55:14.487Z,31.07
2019-01-19T22:57:49.759Z,28.43
2019-01-19T23:01:08.379Z,33.17
2019-01-19T23:03:41.656Z,22.63
2019-01-19T23:06:14.278Z,30.70
2019-01-19T23:08:55.015Z,28.20
2019-01-19T23:11:33.797Z,27.70
2019-01-19T23:14:02.209Z,35.73
2019-01-19T23:16:35.424Z,28.73
2019-01-19T23:19:08.063Z,29.20
2019-01-19T23:21:40.795Z,29.70
2019-01-19T23:24:13.615Z,32.50
2019-01-19T23:26:54.083Z,28.07
2019-01-19T23:29:33.273Z,27.03
2019-01-19T23:32:06.106Z,27.97
2019-01-19T23:34:38.829Z,33.10
2019-01-19T23:37:11.586Z,34.27
2019-01-19T23:39:50.711Z,35.97
2019-01-19T23:42:23.350Z,27.93
2019-01-19T23:45:02.452Z,32.67
2019-01-19T23:47:35.163Z,30.00
2019-01-19T23:50:10.546Z,38.50
2019-01-19T23:52:43.218Z,33.87
2019-01-19T23:55:16.063Z,41.30
2019-01-19T23:57:48.727Z,34.57
